Chasetown, United Kingdom
Current Conditions -  °F | °C
As of 4:50 AM on Sunday 23 Nov 2014 (Local Time) from EGBB Reporting Station
Light Rain Light Rain  
Wind Chill: 43°   Ceiling: 4300
Heat Index: 46°   Visibility: 6mi
Dew Point: 45°   Wind: 7mph
Humidity: 93%   Direction: 300°WNW
Pressure: 30"   Gusts: NA
Location:  52.67°N, 1.93°W
Report Text: EGBB 230450Z 30006KT 9999 -RA SCT034 BKN043 08/07 Q1016
Loading
Personal Weather Stations






























Interactive Weather Map New forecast layout! Learn more

10-Day Weather Forecast

Advertisements
Track Severe Weather on mobile